createdAt,value
2023-03-06T00:00:23.399Z,98765.00
2023-03-06T00:01:01.271Z,98762.31
2023-03-06T00:01:33.101Z,98770.31
2023-03-06T00:02:04.908Z,98752.25
2023-03-06T00:02:36.658Z,98755.72
2023-03-06T00:03:08.607Z,98767.84
2023-03-06T00:03:40.368Z,98757.59
2023-03-06T00:04:13.077Z,98769.75
2023-03-06T00:04:44.790Z,98767.97
2023-03-06T00:05:17.249Z,98764.50
2023-03-06T00:05:49.316Z,98768.91
2023-03-06T00:06:21.654Z,98769.91
2023-03-06T00:06:54.261Z,98767.28
2023-03-06T00:07:25.996Z,98770.81
2023-03-06T00:07:57.831Z,98763.13
2023-03-06T00:08:30.186Z,98770.81
2023-03-06T00:09:01.970Z,98769.03
2023-03-06T00:09:33.702Z,98766.28
2023-03-06T00:10:05.763Z,98771.63
2023-03-06T00:10:38.589Z,98773.38
2023-03-06T00:11:14.833Z,98772.53
2023-03-06T00:11:46.556Z,98777.03
2023-03-06T00:12:18.330Z,98780.50
2023-03-06T00:12:58.365Z,98777.03
2023-03-06T00:13:31.264Z,98770.19
2023-03-06T00:14:03.135Z,98775.66
2023-03-06T00:14:34.878Z,98775.78
2023-03-06T00:15:07.468Z,98769.66
2023-03-06T00:15:39.493Z,98764.53
2023-03-06T00:16:11.792Z,98771.44
2023-03-06T00:16:43.564Z,98764.63
2023-03-06T00:17:15.293Z,98769.09
2023-03-06T00:17:47.457Z,98773.44
2023-03-06T00:18:19.487Z,98767.38
2023-03-06T00:18:52.205Z,98775.03
2023-03-06T00:19:24.530Z,98769.72
2023-03-06T00:19:56.364Z,98768.94
2023-03-06T00:20:28.162Z,98777.81
2023-03-06T00:21:00.293Z,98768.22
2023-03-06T00:21:32.079Z,98775.22
2023-03-06T00:22:03.942Z,98772.69
2023-03-06T00:22:35.672Z,98770.97
2023-03-06T00:23:08.404Z,98771.88
2023-03-06T00:23:41.428Z,98771.94
2023-03-06T00:24:13.379Z,98776.31
2023-03-06T00:24:45.180Z,98771.13
2023-03-06T00:25:20.322Z,98772.25
2023-03-06T00:25:52.141Z,98773.75
2023-03-06T00:26:23.954Z,98774.66
2023-03-06T00:26:55.754Z,98776.44
2023-03-06T00:27:27.595Z,98774.75
2023-03-06T00:27:59.302Z,98766.22
2023-03-06T00:28:31.640Z,98767.16
2023-03-06T00:29:03.732Z,98771.34
2023-03-06T00:29:35.664Z,98760.22
2023-03-06T00:30:15.568Z,98771.47
2023-03-06T00:30:47.586Z,98775.84
2023-03-06T00:31:19.404Z,98772.41
2023-03-06T00:31:51.220Z,98773.34
2023-03-06T00:32:24.038Z,98772.41
2023-03-06T00:32:56.572Z,98773.41
2023-03-06T00:33:28.345Z,98762.06
2023-03-06T00:34:00.346Z,98776.75
2023-03-06T00:34:32.193Z,98767.28
2023-03-06T00:35:04.276Z,98771.81
2023-03-06T00:35:39.168Z,98765.81
2023-03-06T00:36:11.046Z,98760.53
2023-03-06T00:36:42.903Z,98765.81
2023-03-06T00:37:14.662Z,98776.25
2023-03-06T00:37:46.448Z,98777.16
2023-03-06T00:38:18.198Z,98774.66
2023-03-06T00:38:49.944Z,98774.66
2023-03-06T00:39:22.601Z,98772.88
2023-03-06T00:39:54.379Z,98773.78
2023-03-06T00:40:26.822Z,98777.38
2023-03-06T00:40:58.647Z,98774.81
2023-03-06T00:41:30.442Z,98775.72
2023-03-06T00:42:02.204Z,98773.16
2023-03-06T00:42:34.005Z,98775.03
2023-03-06T00:43:05.931Z,98780.25
2023-03-06T00:43:38.077Z,98775.06
2023-03-06T00:44:09.836Z,98785.66
2023-03-06T00:44:41.757Z,98771.03
2023-03-06T00:45:14.656Z,98777.91
2023-03-06T00:45:46.443Z,98783.09
2023-03-06T00:46:18.363Z,98781.38
2023-03-06T00:46:50.174Z,98780.41
2023-03-06T00:47:21.962Z,98782.94
2023-03-06T00:47:53.763Z,98777.94
2023-03-06T00:48:25.515Z,98783.09
2023-03-06T00:48:57.268Z,98781.38
2023-03-06T00:49:29.039Z,98783.03
2023-03-06T00:50:01.073Z,98782.94
2023-03-06T00:50:32.899Z,98782.13
2023-03-06T00:51:04.925Z,98779.50
2023-03-06T00:51:36.640Z,98777.69
2023-03-06T00:52:08.416Z,98775.94
2023-03-06T00:52:42.123Z,98778.53
2023-03-06T00:53:13.895Z,98775.03
2023-03-06T00:53:45.634Z,98779.25
2023-03-06T00:54:17.416Z,98773.19
2023-03-06T00:54:49.365Z,98778.25
2023-03-06T00:55:21.289Z,98774.69
2023-03-06T00:55:53.073Z,98773.88
2023-03-06T00:56:25.315Z,98771.16
2023-03-06T00:56:57.026Z,98775.50
2023-03-06T00:57:28.851Z,98774.06
2023-03-06T00:58:00.647Z,98774.94
2023-03-06T00:58:32.409Z,98768.88
2023-03-06T00:59:04.145Z,98764.47
2023-03-06T00:59:36.462Z,98774.06
2023-03-06T01:00:09.627Z,98769.81
2023-03-06T01:00:41.405Z,98760.31
2023-03-06T01:01:14.074Z,98770.53
2023-03-06T01:01:45.863Z,98773.13
2023-03-06T01:02:17.705Z,98759.41
2023-03-06T01:02:49.619Z,98760.31
2023-03-06T01:03:21.420Z,98761.16
2023-03-06T01:03:53.178Z,98767.28
2023-03-06T01:04:25.328Z,98760.91
2023-03-06T01:04:57.597Z,98755.66
2023-03-06T01:05:35.819Z,98771.06
2023-03-06T01:06:07.789Z,98763.91
2023-03-06T01:06:39.555Z,98770.97
2023-03-06T01:07:11.386Z,98764.00
2023-03-06T01:07:43.156Z,98765.78
2023-03-06T01:08:14.911Z,98758.81
2023-03-06T01:08:46.653Z,98760.50
2023-03-06T01:09:18.448Z,98761.31
2023-03-06T01:09:50.475Z,98756.13
2023-03-06T01:10:22.372Z,98757.78
2023-03-06T01:10:54.206Z,98770.78
2023-03-06T01:11:26.215Z,98757.69
2023-03-06T01:11:57.988Z,98752.50
2023-03-06T01:12:29.896Z,98756.03
2023-03-06T01:13:01.626Z,98752.44
2023-03-06T01:13:33.375Z,98748.94
2023-03-06T01:14:05.585Z,98751.69
2023-03-06T01:14:37.296Z,98751.78
2023-03-06T01:15:10.882Z,98746.63
2023-03-06T01:15:42.790Z,98749.25
2023-03-06T01:16:19.118Z,98744.94
2023-03-06T01:16:50.942Z,98751.16
2023-03-06T01:17:22.675Z,98748.44
2023-03-06T01:17:55.267Z,98746.81
2023-03-06T01:18:27.037Z,98742.44
2023-03-06T01:18:59.263Z,98750.19
2023-03-06T01:19:31.243Z,98754.56
2023-03-06T01:20:03.161Z,98750.31
2023-03-06T01:20:34.975Z,98751.09
2023-03-06T01:21:07.342Z,98751.19
2023-03-06T01:21:39.200Z,98755.53
2023-03-06T01:22:10.966Z,98753.03
2023-03-06T01:22:43.168Z,98740.88
2023-03-06T01:23:14.994Z,98752.19
2023-03-06T01:23:47.506Z,98751.34
2023-03-06T01:24:19.255Z,98746.34
2023-03-06T01:24:50.994Z,98747.03
2023-03-06T01:25:24.371Z,98749.69
2023-03-06T01:25:56.297Z,98748.84
2023-03-06T01:26:28.096Z,98749.78
2023-03-06T01:26:59.910Z,98736.81
2023-03-06T01:27:31.657Z,98748.84
2023-03-06T01:28:03.599Z,98745.44
2023-03-06T01:28:37.543Z,98748.84
2023-03-06T01:29:09.374Z,98752.41
2023-03-06T01:29:41.124Z,98745.47
2023-03-06T01:30:13.197Z,98743.72
2023-03-06T01:30:44.936Z,98746.28
2023-03-06T01:31:16.850Z,98746.28
2023-03-06T01:31:48.802Z,98735.81
2023-03-06T01:32:21.609Z,98740.22
2023-03-06T01:32:53.452Z,98727.34
2023-03-06T01:33:25.198Z,98736.81
2023-03-06T01:33:56.971Z,98735.09
2023-03-06T01:34:28.800Z,98736.00
2023-03-06T01:35:00.573Z,98729.84
2023-03-06T01:35:32.352Z,98728.09
2023-03-06T01:36:06.612Z,98727.19
2023-03-06T01:36:38.427Z,98729.06
2023-03-06T01:37:10.297Z,98731.69
2023-03-06T01:37:42.507Z,98728.09
2023-03-06T01:38:14.627Z,98726.38
2023-03-06T01:38:46.470Z,98726.38
2023-03-06T01:39:18.279Z,98729.00
2023-03-06T01:39:50.354Z,98735.22
2023-03-06T01:40:22.274Z,98728.31
2023-03-06T01:40:54.074Z,98723.91
2023-03-06T01:41:25.920Z,98722.97
2023-03-06T01:41:57.811Z,98720.44
2023-03-06T01:42:31.941Z,98722.00
2023-03-06T01:43:28.564Z,98728.09
2023-03-06T01:44:00.388Z,98729.63
2023-03-06T01:44:32.594Z,98726.97
2023-03-06T01:45:27.219Z,98725.13
2023-03-06T01:46:25.717Z,98727.69
2023-03-06T01:46:57.542Z,98731.94
2023-03-06T01:47:29.400Z,98730.97
2023-03-06T01:48:01.176Z,98730.94
2023-03-06T01:48:32.988Z,98731.78
2023-03-06T01:49:16.645Z,98730.03
2023-03-06T01:49:48.859Z,98717.78
2023-03-06T01:50:20.838Z,98729.81
2023-03-06T01:50:54.284Z,98717.47
2023-03-06T01:51:35.725Z,98720.91
2023-03-06T01:52:12.082Z,98729.56
2023-03-06T01:52:56.261Z,98712.16
2023-03-06T01:53:28.559Z,98725.06
2023-03-06T01:54:05.349Z,98721.50
2023-03-06T01:54:42.344Z,98721.38
2023-03-06T01:55:28.126Z,98721.28
2023-03-06T01:55:59.899Z,98723.84
2023-03-06T01:56:32.176Z,98716.88
2023-03-06T01:57:13.589Z,98723.72
2023-03-06T01:57:51.287Z,98723.72
2023-03-06T01:58:23.162Z,98724.59
2023-03-06T01:58:55.122Z,98728.00
2023-03-06T01:59:29.411Z,98720.19
2023-03-06T02:00:12.604Z,98715.00
2023-03-06T02:00:44.591Z,98720.19
2023-03-06T02:01:18.963Z,98715.00
2023-03-06T02:01:51.544Z,98717.59
2023-03-06T02:02:23.442Z,98708.03
2023-03-06T02:03:04.527Z,98715.69
2023-03-06T02:03:36.603Z,98708.78
2023-03-06T02:04:09.740Z,98714.84
2023-03-06T02:04:42.643Z,98713.94
2023-03-06T02:05:14.588Z,98711.25
2023-03-06T02:05:46.665Z,98706.97
2023-03-06T02:06:21.791Z,98709.59
2023-03-06T02:06:54.174Z,98714.69
2023-03-06T02:07:26.320Z,98706.00
2023-03-06T02:07:58.421Z,98712.84
2023-03-06T02:08:31.609Z,98710.22
2023-03-06T02:09:05.763Z,98711.03
2023-03-06T02:09:38.916Z,98704.81
2023-03-06T02:10:12.267Z,98714.44
2023-03-06T02:10:56.797Z,98710.91
2023-03-06T02:11:28.597Z,98710.72
2023-03-06T02:12:07.880Z,98704.69
2023-03-06T02:12:43.805Z,98709.69
2023-03-06T02:13:15.597Z,98702.78
2023-03-06T02:13:49.214Z,98710.50
2023-03-06T02:14:21.378Z,98712.16
2023-03-06T02:14:53.863Z,98706.97
2023-03-06T02:15:29.191Z,98708.66
2023-03-06T02:16:02.257Z,98713.06
2023-03-06T02:16:34.292Z,98711.16
2023-03-06T02:17:09.038Z,98709.34
2023-03-06T02:17:43.867Z,98711.97
2023-03-06T02:18:15.779Z,98714.56
2023-03-06T02:18:49.490Z,98712.72
2023-03-06T02:19:58.144Z,98716.03
2023-03-06T02:20:39.656Z,98714.31
2023-03-06T02:21:21.735Z,98712.56
2023-03-06T02:21:53.489Z,98709.84
2023-03-06T02:22:36.323Z,98709.19
2023-03-06T02:23:25.272Z,98705.53
2023-03-06T02:24:18.766Z,98703.13
2023-03-06T02:25:03.438Z,98714.00
2023-03-06T02:25:38.348Z,98715.78
2023-03-06T02:26:12.178Z,98710.72
2023-03-06T02:26:45.362Z,98719.53
2023-03-06T02:27:19.032Z,98708.34
2023-03-06T02:27:50.839Z,98700.56
2023-03-06T02:28:24.825Z,98704.91
2023-03-06T02:28:58.549Z,98702.22
2023-03-06T02:29:30.610Z,98708.41
2023-03-06T02:30:07.820Z,98703.97
2023-03-06T02:30:41.449Z,98713.66
2023-03-06T02:31:25.139Z,98704.91
2023-03-06T02:31:57.586Z,98703.09
2023-03-06T02:32:29.343Z,98705.59
2023-03-06T02:33:01.604Z,98695.28
2023-03-06T02:33:33.533Z,98698.84
2023-03-06T02:34:27.138Z,98702.38
2023-03-06T02:34:59.090Z,98703.25
2023-03-06T02:35:34.759Z,98700.63
2023-03-06T02:36:12.920Z,98701.34
2023-03-06T02:36:51.880Z,98707.44
2023-03-06T02:37:26.179Z,98705.47
2023-03-06T02:38:02.746Z,98695.91
2023-03-06T02:38:44.644Z,98700.06
2023-03-06T02:39:21.804Z,98701.78
2023-03-06T02:40:02.960Z,98700.00
2023-03-06T02:40:35.449Z,98705.13
2023-03-06T02:41:08.635Z,98699.03
2023-03-06T02:41:41.007Z,98702.38
2023-03-06T02:42:19.594Z,98704.09
2023-03-06T02:42:58.143Z,98698.13
2023-03-06T02:43:34.915Z,98702.22
2023-03-06T02:44:06.661Z,98703.06
2023-03-06T02:44:38.652Z,98698.69
2023-03-06T02:45:13.478Z,98696.09
2023-03-06T02:45:49.304Z,98700.31
2023-03-06T02:46:21.134Z,98703.00
2023-03-06T02:46:52.899Z,98705.47
2023-03-06T02:47:25.550Z,98701.97
2023-03-06T02:47:57.306Z,98701.94
2023-03-06T02:48:29.146Z,98704.50
2023-03-06T02:49:00.924Z,98688.06
2023-03-06T02:49:32.703Z,98701.88
2023-03-06T02:50:04.710Z,98696.53
2023-03-06T02:50:36.511Z,98693.00
2023-03-06T02:51:08.347Z,98696.53
2023-03-06T02:51:40.080Z,98699.13
2023-03-06T02:52:12.029Z,98697.41
2023-03-06T02:52:43.796Z,98694.81
2023-03-06T02:53:18.373Z,98689.56
2023-03-06T02:53:50.388Z,98690.44
2023-03-06T02:54:22.394Z,98690.44
2023-03-06T02:54:54.188Z,98688.75
2023-03-06T02:55:26.015Z,98686.16
2023-03-06T02:55:57.904Z,98687.03
2023-03-06T02:56:29.720Z,98680.91
2023-03-06T02:57:01.460Z,98679.19
2023-03-06T02:57:33.265Z,98680.91
2023-03-06T02:58:05.590Z,98680.06
2023-03-06T02:58:37.473Z,98681.81
2023-03-06T02:59:09.235Z,98676.66
2023-03-06T02:59:41.068Z,98686.22
2023-03-06T03:00:13.264Z,98679.28
2023-03-06T03:00:45.110Z,98674.94
2023-03-06T03:01:16.876Z,98683.59
2023-03-06T03:01:48.770Z,98681.94
2023-03-06T03:02:20.665Z,98682.84
2023-03-06T03:02:53.128Z,98681.09
2023-03-06T03:03:24.844Z,98676.69
2023-03-06T03:03:56.595Z,98677.59
2023-03-06T03:04:28.394Z,98679.31
2023-03-06T03:05:00.193Z,98674.19
2023-03-06T03:05:32.504Z,98681.16
2023-03-06T03:06:06.031Z,98677.81
2023-03-06T03:06:37.844Z,98678.63
2023-03-06T03:07:09.627Z,98680.44
2023-03-06T03:07:41.438Z,98677.72
2023-03-06T03:08:13.492Z,98679.56
2023-03-06T03:08:45.233Z,98682.06
2023-03-06T03:09:17.154Z,98683.88
2023-03-06T03:09:48.927Z,98688.31
2023-03-06T03:10:21.020Z,98683.06
2023-03-06T03:10:52.834Z,98678.63
2023-03-06T03:11:24.598Z,98689.94
2023-03-06T03:11:56.341Z,98684.69
2023-03-06T03:12:28.829Z,98681.34
2023-03-06T03:13:00.826Z,98683.06
2023-03-06T03:13:32.967Z,98689.94
2023-03-06T03:14:04.854Z,98686.50
2023-03-06T03:14:36.701Z,98688.19
2023-03-06T03:15:09.749Z,98685.56
2023-03-06T03:15:41.672Z,98684.69
2023-03-06T03:16:15.631Z,98678.72
2023-03-06T03:16:47.855Z,98688.06
2023-03-06T03:17:19.619Z,98680.13
2023-03-06T03:17:51.603Z,98680.97
2023-03-06T03:18:23.435Z,98688.78
2023-03-06T03:18:55.237Z,98685.44
2023-03-06T03:19:26.974Z,98683.72
2023-03-06T03:19:58.777Z,98681.09
2023-03-06T03:20:30.525Z,98683.66
2023-03-06T03:21:03.129Z,98687.31
2023-03-06T03:21:34.879Z,98684.69
2023-03-06T03:22:07.303Z,98678.41
2023-03-06T03:22:39.364Z,98670.75
2023-03-06T03:23:11.162Z,98686.28
2023-03-06T03:23:43.217Z,98688.06
2023-03-06T03:24:16.766Z,98689.69
2023-03-06T03:24:48.662Z,98680.22
2023-03-06T03:25:23.950Z,98679.31
2023-03-06T03:25:55.752Z,98677.31
2023-03-06T03:26:27.650Z,98673.94
2023-03-06T03:26:59.530Z,98682.56
2023-03-06T03:27:31.324Z,98686.91
2023-03-06T03:28:03.175Z,98671.41
2023-03-06T03:28:35.338Z,98676.56
2023-03-06T03:29:07.189Z,98674.75
2023-03-06T03:29:40.168Z,98677.25
2023-03-06T03:30:12.636Z,98673.81
2023-03-06T03:30:45.826Z,98670.41
2023-03-06T03:31:17.845Z,98672.78
2023-03-06T03:31:49.706Z,98665.16
2023-03-06T03:32:21.479Z,98677.31
2023-03-06T03:32:53.281Z,98678.97
2023-03-06T03:33:25.087Z,98678.03
2023-03-06T03:33:56.885Z,98678.91
2023-03-06T03:34:28.663Z,98674.50
2023-03-06T03:35:00.405Z,98672.78
2023-03-06T03:35:32.324Z,98670.38
2023-03-06T03:36:06.821Z,98680.66
2023-03-06T03:36:38.736Z,98674.63
2023-03-06T03:37:10.879Z,98671.31
2023-03-06T03:37:42.680Z,98673.00
2023-03-06T03:38:14.469Z,98666.81
2023-03-06T03:38:46.280Z,98670.13
2023-03-06T03:39:18.185Z,98673.72
2023-03-06T03:39:50.007Z,98673.78
2023-03-06T03:40:21.707Z,98659.13
2023-03-06T03:40:53.566Z,98665.91
2023-03-06T03:41:25.399Z,98655.34
2023-03-06T03:41:57.238Z,98651.78
2023-03-06T03:42:29.037Z,98657.97
2023-03-06T03:43:00.807Z,98645.94
2023-03-06T03:43:32.677Z,98640.75
2023-03-06T03:44:04.492Z,98645.78
2023-03-06T03:44:36.276Z,98636.31
2023-03-06T03:45:08.603Z,98642.25
2023-03-06T03:45:40.496Z,98635.38
2023-03-06T03:46:12.382Z,98625.22
2023-03-06T03:46:44.400Z,98624.38
2023-03-06T03:47:16.219Z,98628.72
2023-03-06T03:47:48.044Z,98631.16
2023-03-06T03:48:20.593Z,98630.25
2023-03-06T03:48:52.331Z,98629.44
2023-03-06T03:49:24.486Z,98627.72
2023-03-06T03:49:56.285Z,98631.94
2023-03-06T03:50:28.024Z,98632.66
2023-03-06T03:51:09.752Z,98632.63
2023-03-06T03:51:41.648Z,98630.84
2023-03-06T03:52:13.442Z,98628.16
2023-03-06T03:52:45.237Z,98625.72
2023-03-06T03:53:17.134Z,98622.25
2023-03-06T03:53:49.440Z,98631.94
2023-03-06T03:54:21.385Z,98625.00
2023-03-06T03:54:53.967Z,98631.88
2023-03-06T03:55:26.140Z,98623.31
2023-03-06T03:55:57.919Z,98625.91
2023-03-06T03:56:29.647Z,98632.03
2023-03-06T03:57:01.390Z,98620.66
2023-03-06T03:57:33.194Z,98626.56
2023-03-06T03:58:05.758Z,98619.63
2023-03-06T03:58:37.739Z,98629.19
2023-03-06T03:59:09.694Z,98618.69
2023-03-06T03:59:41.440Z,98627.50
2023-03-06T04:00:16.686Z,98614.53
2023-03-06T04:00:48.472Z,98623.94
2023-03-06T04:01:20.276Z,98620.41
2023-03-06T04:01:52.619Z,98619.63
2023-03-06T04:02:25.619Z,98624.78
2023-03-06T04:02:57.515Z,98627.41
2023-03-06T04:03:29.396Z,98624.88
2023-03-06T04:04:01.221Z,98625.53
2023-03-06T04:04:33.111Z,98621.22
2023-03-06T04:05:05.289Z,98619.66
2023-03-06T04:05:37.142Z,98629.09
2023-03-06T04:06:09.109Z,98627.28
2023-03-06T04:06:40.955Z,98626.56
2023-03-06T04:07:12.865Z,98629.41
2023-03-06T04:07:44.950Z,98621.44
2023-03-06T04:08:16.699Z,98629.41
2023-03-06T04:08:48.446Z,98627.66
2023-03-06T04:09:20.220Z,98643.25
2023-03-06T04:09:52.015Z,98633.53
2023-03-06T04:10:23.754Z,98638.84
2023-03-06T04:10:55.541Z,98633.53
2023-03-06T04:11:27.393Z,98631.88
2023-03-06T04:11:59.100Z,98634.44
2023-03-06T04:12:30.985Z,98627.53
2023-03-06T04:13:02.837Z,98635.25
2023-03-06T04:13:34.686Z,98638.78
2023-03-06T04:14:08.361Z,98638.59
2023-03-06T04:14:40.109Z,98642.94
2023-03-06T04:15:11.931Z,98627.97
2023-03-06T04:15:43.862Z,98634.94
2023-03-06T04:16:15.812Z,98636.72
2023-03-06T04:16:47.660Z,98630.69
2023-03-06T04:17:19.481Z,98630.56
2023-03-06T04:17:51.548Z,98630.72
2023-03-06T04:18:24.129Z,98621.25
2023-03-06T04:18:55.907Z,98628.06
2023-03-06T04:19:27.815Z,98626.97
2023-03-06T04:20:00.706Z,98630.47
2023-03-06T04:20:32.522Z,98620.03
2023-03-06T04:21:04.476Z,98626.25
2023-03-06T04:21:36.358Z,98625.22
2023-03-06T04:22:08.117Z,98616.69
2023-03-06T04:22:39.969Z,98621.81
2023-03-06T04:23:12.280Z,98626.97
2023-03-06T04:23:44.068Z,98614.66
2023-03-06T04:24:15.877Z,98625.16
2023-03-06T04:24:49.993Z,98621.72
2023-03-06T04:25:21.776Z,98608.41
2023-03-06T04:25:54.169Z,98613.81
2023-03-06T04:26:26.047Z,98614.53
2023-03-06T04:26:57.829Z,98613.53
2023-03-06T04:27:29.542Z,98619.59
2023-03-06T04:28:01.366Z,98610.91
2023-03-06T04:28:33.300Z,98617.88
2023-03-06T04:29:05.376Z,98623.00
2023-03-06T04:29:37.151Z,98622.22
2023-03-06T04:30:09.617Z,98619.59
2023-03-06T04:30:44.479Z,98620.59
2023-03-06T04:31:16.301Z,98622.22
2023-03-06T04:31:48.168Z,98614.34
2023-03-06T04:32:21.544Z,98611.72
2023-03-06T04:32:53.503Z,98616.06
2023-03-06T04:33:25.305Z,98618.69
2023-03-06T04:33:57.294Z,98618.75
2023-03-06T04:34:29.065Z,98616.16
2023-03-06T04:35:01.109Z,98601.53
2023-03-06T04:35:33.063Z,98611.03
2023-03-06T04:36:05.513Z,98623.31
2023-03-06T04:36:37.353Z,98629.38
2023-03-06T04:37:22.841Z,98613.53
2023-03-06T04:37:55.015Z,98615.34
2023-03-06T04:38:26.859Z,98624.00
2023-03-06T04:38:59.216Z,98616.97
2023-03-06T04:39:31.127Z,98620.66
2023-03-06T04:40:03.040Z,98617.16
2023-03-06T04:40:37.559Z,98607.56
2023-03-06T04:41:09.452Z,98609.97
2023-03-06T04:41:42.609Z,98605.63
2023-03-06T04:42:15.300Z,98610.91
2023-03-06T04:42:47.384Z,98612.63
2023-03-06T04:43:19.238Z,98614.28
2023-03-06T04:43:52.150Z,98610.72
2023-03-06T04:44:24.015Z,98606.53
2023-03-06T04:44:55.754Z,98609.88
2023-03-06T04:45:30.227Z,98610.69
2023-03-06T04:46:02.104Z,98615.22
2023-03-06T04:46:35.092Z,98611.72
2023-03-06T04:47:07.251Z,98601.34
2023-03-06T04:47:39.360Z,98608.19
2023-03-06T04:48:15.739Z,98610.72
2023-03-06T04:48:47.780Z,98618.47
2023-03-06T04:49:19.584Z,98609.75
2023-03-06T04:49:51.389Z,98614.16
2023-03-06T04:50:25.056Z,98615.84
2023-03-06T04:50:56.800Z,98603.66
2023-03-06T04:51:28.586Z,98610.59
2023-03-06T04:52:00.374Z,98607.03
2023-03-06T04:52:32.164Z,98609.66
2023-03-06T04:53:04.866Z,98603.44
2023-03-06T04:53:36.607Z,98599.88
2023-03-06T04:54:08.465Z,98603.41
2023-03-06T04:54:40.221Z,98598.31
2023-03-06T04:55:14.660Z,98598.19
2023-03-06T04:55:46.425Z,98594.66
2023-03-06T04:56:18.674Z,98599.91
2023-03-06T04:56:50.546Z,98593.88
2023-03-06T04:57:22.411Z,98600.63
2023-03-06T04:57:54.293Z,98597.16
2023-03-06T04:58:26.505Z,98591.97
2023-03-06T04:58:58.608Z,98593.63
2023-03-06T04:59:30.507Z,98589.41
2023-03-06T05:00:08.581Z,98584.97
2023-03-06T05:00:40.530Z,98595.38
2023-03-06T05:01:12.796Z,98597.97
2023-03-06T05:01:44.647Z,98591.25
2023-03-06T05:02:17.855Z,98585.88
2023-03-06T05:02:50.781Z,98582.84
2023-03-06T05:03:22.698Z,98589.09
2023-03-06T05:03:54.532Z,98590.13
2023-03-06T05:04:26.310Z,98587.97
2023-03-06T05:04:58.081Z,98588.84
2023-03-06T05:05:30.605Z,98575.94
2023-03-06T05:06:02.669Z,98580.22
2023-03-06T05:06:34.550Z,98578.31
2023-03-06T05:07:06.410Z,98581.16
2023-03-06T05:07:39.098Z,98576.94
2023-03-06T05:08:16.082Z,98576.09
2023-03-06T05:08:47.875Z,98574.50
2023-03-06T05:09:19.614Z,98573.25
2023-03-06T05:09:51.466Z,98578.78
2023-03-06T05:10:23.442Z,98569.06
2023-03-06T05:11:01.703Z,98573.34
2023-03-06T05:11:33.492Z,98566.50
2023-03-06T05:12:05.421Z,98570.75
2023-03-06T05:12:37.906Z,98570.00
2023-03-06T05:13:10.380Z,98571.50
2023-03-06T05:13:42.953Z,98580.38
2023-03-06T05:14:14.830Z,98573.25
2023-03-06T05:14:48.020Z,98578.50
2023-03-06T05:15:19.996Z,98577.75
2023-03-06T05:15:51.860Z,98576.75
2023-03-06T05:16:26.112Z,98579.22
2023-03-06T05:16:58.177Z,98570.72
2023-03-06T05:17:30.048Z,98581.94
2023-03-06T05:18:01.797Z,98577.75
2023-03-06T05:18:34.485Z,98580.19
2023-03-06T05:19:06.264Z,98581.00
2023-03-06T05:19:38.076Z,98576.75
2023-03-06T05:20:12.051Z,98578.31
2023-03-06T05:20:43.877Z,98574.06
2023-03-06T05:21:15.653Z,98576.81
2023-03-06T05:21:47.412Z,98572.63
2023-03-06T05:22:19.264Z,98569.28
2023-03-06T05:22:51.518Z,98568.19
2023-03-06T05:23:23.352Z,98574.25
2023-03-06T05:23:55.180Z,98573.41
2023-03-06T05:24:26.991Z,98573.41
2023-03-06T05:24:58.882Z,98573.34
2023-03-06T05:25:30.728Z,98575.13
2023-03-06T05:26:08.285Z,98574.38
2023-03-06T05:26:40.045Z,98584.75
2023-03-06T05:27:11.902Z,98586.34
2023-03-06T05:27:43.869Z,98587.41
2023-03-06T05:28:15.603Z,98586.41
2023-03-06T05:28:47.342Z,98590.78
2023-03-06T05:29:19.213Z,98588.16
2023-03-06T05:29:50.998Z,98601.44
2023-03-06T05:30:23.401Z,98590.06
2023-03-06T05:30:55.100Z,98583.13
2023-03-06T05:31:26.864Z,98590.94
2023-03-06T05:31:59.028Z,98593.84
2023-03-06T05:32:31.784Z,98581.88
2023-03-06T05:33:04.276Z,98590.47
2023-03-06T05:33:36.851Z,98590.63
2023-03-06T05:34:15.489Z,98590.81
2023-03-06T05:34:48.081Z,98584.81
2023-03-06T05:35:23.001Z,98581.34
2023-03-06T05:35:54.800Z,98584.63
2023-03-06T05:36:26.678Z,98586.19
2023-03-06T05:36:59.205Z,98581.75
2023-03-06T05:37:31.223Z,98575.50
2023-03-06T05:38:03.345Z,98587.72
2023-03-06T05:38:35.071Z,98580.69
2023-03-06T05:39:07.041Z,98580.50
2023-03-06T05:39:38.822Z,98575.25
2023-03-06T05:40:11.694Z,98583.78
2023-03-06T05:40:44.871Z,98587.41
2023-03-06T05:41:17.189Z,98575.16
2023-03-06T05:41:48.971Z,98581.09
2023-03-06T05:42:21.073Z,98581.09
2023-03-06T05:42:52.878Z,98586.34
2023-03-06T05:43:24.626Z,98591.53
2023-03-06T05:43:57.024Z,98592.38
2023-03-06T05:44:33.305Z,98587.41
2023-03-06T05:45:05.742Z,98590.88
2023-03-06T05:45:38.762Z,98592.50
2023-03-06T05:46:11.333Z,98585.44
2023-03-06T05:46:43.170Z,98594.03
2023-03-06T05:47:15.172Z,98587.97
2023-03-06T05:47:47.250Z,98590.56
2023-03-06T05:48:19.089Z,98588.88
2023-03-06T05:48:53.229Z,98588.13
2023-03-06T05:49:25.370Z,98595.94
2023-03-06T05:49:57.106Z,98585.75
2023-03-06T05:50:28.892Z,98598.91
2023-03-06T05:51:02.483Z,98596.28
2023-03-06T05:51:34.242Z,98599.94
2023-03-06T05:52:07.506Z,98593.75
2023-03-06T05:52:40.238Z,98595.47
2023-03-06T05:53:12.023Z,98588.31
2023-03-06T05:53:43.874Z,98585.94
2023-03-06T05:54:15.699Z,98585.88
2023-03-06T05:54:51.114Z,98582.31
2023-03-06T05:55:24.493Z,98586.81
2023-03-06T05:56:02.305Z,98590.88
2023-03-06T05:56:34.044Z,98582.13
2023-03-06T05:57:06.047Z,98594.16
2023-03-06T05:57:37.811Z,98590.69
2023-03-06T05:58:09.553Z,98595.94
2023-03-06T05:58:41.364Z,98596.06
2023-03-06T05:59:13.513Z,98594.97
2023-03-06T05:59:46.387Z,98597.63
2023-03-06T06:00:19.887Z,98598.34
2023-03-06T06:00:52.296Z,98593.81
2023-03-06T06:01:25.507Z,98593.75
2023-03-06T06:01:57.978Z,98590.28
2023-03-06T06:02:29.975Z,98593.72
2023-03-06T06:03:02.419Z,98600.88
2023-03-06T06:03:34.296Z,98600.78
2023-03-06T06:04:06.144Z,98601.69
2023-03-06T06:04:38.057Z,98596.44
2023-03-06T06:05:12.899Z,98590.75
2023-03-06T06:05:45.034Z,98595.94
2023-03-06T06:06:16.903Z,98586.25
2023-03-06T06:06:54.282Z,98598.44
2023-03-06T06:07:26.062Z,98594.97
2023-03-06T06:07:57.870Z,98594.97
2023-03-06T06:08:29.646Z,98599.16
2023-03-06T06:09:01.431Z,98593.72
2023-03-06T06:09:33.174Z,98597.97
2023-03-06T06:10:07.051Z,98601.38
2023-03-06T06:10:39.907Z,98598.84
2023-03-06T06:11:12.954Z,98595.22
2023-03-06T06:11:44.902Z,98592.44
2023-03-06T06:12:16.690Z,98598.56
2023-03-06T06:12:48.490Z,98600.28
2023-03-06T06:13:20.263Z,98596.13
2023-03-06T06:13:52.025Z,98593.81
2023-03-06T06:14:24.646Z,98597.63
2023-03-06T06:14:56.535Z,98606.50
2023-03-06T06:15:29.028Z,98593.50
2023-03-06T06:16:06.027Z,98601.44
2023-03-06T06:16:37.841Z,98592.69
2023-03-06T06:17:09.649Z,98590.88
2023-03-06T06:17:41.630Z,98585.31
2023-03-06T06:18:13.392Z,98593.09
2023-03-06T06:18:46.709Z,98588.69
2023-03-06T06:19:21.333Z,98586.16
2023-03-06T06:19:53.986Z,98586.88
2023-03-06T06:20:26.135Z,98587.50
2023-03-06T06:20:57.876Z,98588.19
2023-03-06T06:21:29.594Z,98588.31
2023-03-06T06:22:04.101Z,98593.63
2023-03-06T06:22:38.025Z,98586.66
2023-03-06T06:23:12.723Z,98585.50
2023-03-06T06:23:44.596Z,98582.78
2023-03-06T06:24:19.334Z,98595.34
2023-03-06T06:24:51.212Z,98594.44
2023-03-06T06:25:22.957Z,98593.44
2023-03-06T06:25:54.761Z,98592.44
2023-03-06T06:26:26.542Z,98586.25
2023-03-06T06:27:01.930Z,98590.53